Time;durP1;ratioP1;P1;durP2;ratioP2;P2;SDS_P1;SDS_P2;PMS_P1;PMS_P2;Temp;Humidity;BMP_temperature;BMP_pressure;BME280_temperature;BME280_humidity;BME280_pressure;Samples;Min_cycle;Max_cycle;Signal;HPM_P1;HPM_P2
2021/09/27 00:01:31;;;;;;;;;;;21.30;49.70;;;;;;8396061;28;19917;-50
2021/09/27 00:05:32;;;;;;;;;;;21.30;49.70;;;;;;8396684;28;20012;-50
2021/09/27 00:09:33;;;;;;;;;;;21.30;49.70;;;;;;8397299;28;19925;-50
2021/09/27 00:13:35;;;;;;;;;;;21.30;49.70;;;;;;8395953;28;20369;-50
2021/09/27 00:17:35;;;;;;;;;;;21.30;49.70;;;;;;8401976;28;19928;-48
2021/09/27 00:21:36;;;;;;;;;;;21.30;49.70;;;;;;8403053;28;19916;-53
2021/09/27 00:25:37;;;;;;;;;;;21.30;49.70;;;;;;8403299;28;19962;-50
2021/09/27 00:29:37;;;;;;;;;;;21.30;50.20;;;;;;8402764;28;19924;-52
2021/09/27 00:33:37;;;;;;;;;;;21.30;49.70;;;;;;8402837;28;20011;-50
2021/09/27 00:37:38;;;;;;;;;;;21.30;49.70;;;;;;8402242;28;19927;-49
2021/09/27 00:41:38;;;;;;;;;;;21.30;49.70;;;;;;8402592;28;19916;-49
2021/09/27 00:45:43;;;;;;;;;;;21.30;49.70;;;;;;8402923;28;19913;-49
2021/09/27 00:49:44;;;;;;;;;;;21.30;49.70;;;;;;8401722;28;19925;-49
2021/09/27 00:53:46;;;;;;;;;;;21.30;49.70;;;;;;8401912;28;20297;-53
2021/09/27 00:57:47;;;;;;;;;;;21.30;49.70;;;;;;8401839;28;19917;-51
2021/09/27 01:01:47;;;;;;;;;;;21.30;49.80;;;;;;8402137;28;19912;-50
2021/09/27 01:06:11;;;;;;;;;;;21.20;49.70;;;;;;8378114;28;19917;-52
2021/09/27 01:10:21;;;;;;;;;;;21.20;49.70;;;;;;8359561;28;20019;-50
2021/09/27 01:14:46;;;;;;;;;;;21.20;49.70;;;;;;8368328;28;20281;-51
2021/09/27 01:19:19;;;;;;;;;;;21.20;49.70;;;;;;8368273;28;19970;-50
2021/09/27 01:23:38;;;;;;;;;;;21.20;49.70;;;;;;8334056;28;20354;-50
2021/09/27 01:27:59;;;;;;;;;;;21.20;49.70;;;;;;8367839;28;19917;-50
2021/09/27 01:32:09;;;;;;;;;;;21.20;50.30;;;;;;8367337;28;20007;-51
2021/09/27 01:36:15;;;;;;;;;;;21.20;49.80;;;;;;8367694;28;20484;-50
2021/09/27 01:40:24;;;;;;;;;;;21.20;49.80;;;;;;8367369;28;20035;-51
2021/09/27 01:44:44;;;;;;;;;;;21.20;49.80;;;;;;8367764;28;20421;-50
2021/09/27 01:49:03;;;;;;;;;;;21.20;49.80;;;;;;8368207;28;20003;-50
2021/09/27 01:53:17;;;;;;;;;;;21.20;49.80;;;;;;8366501;28;19932;-49
2021/09/27 01:57:33;;;;;;;;;;;21.20;49.80;;;;;;8371850;28;20328;-50
2021/09/27 02:01:43;;;;;;;;;;;21.20;49.80;;;;;;8366457;28;19939;-49
2021/09/27 02:05:57;;;;;;;;;;;21.20;49.80;;;;;;8366855;28;19928;-49
2021/09/27 02:10:00;;;;;;;;;;;21.20;49.80;;;;;;8367038;28;19929;-50
2021/09/27 02:14:07;;;;;;;;;;;21.20;49.80;;;;;;8399139;28;19917;-52
2021/09/27 02:18:34;;;;;;;;;;;21.20;49.80;;;;;;8399657;28;19917;-50
2021/09/27 02:22:48;;;;;;;;;;;21.20;49.80;;;;;;8394804;28;19939;-49
2021/09/27 02:26:49;;;;;;;;;;;21.20;49.80;;;;;;8399442;28;19983;-50
2021/09/27 02:30:49;;;;;;;;;;;21.20;49.80;;;;;;8399392;28;20015;-49
2021/09/27 02:34:56;;;;;;;;;;;21.10;49.70;;;;;;8398823;28;19978;-50
2021/09/27 02:39:22;;;;;;;;;;;21.10;49.70;;;;;;8398073;28;19917;-53
2021/09/27 02:43:25;;;;;;;;;;;21.20;49.80;;;;;;8394373;28;19912;-50
2021/09/27 02:47:28;;;;;;;;;;;21.10;49.80;;;;;;8398531;28;19991;-51
2021/09/27 02:51:30;;;;;;;;;;;21.10;49.70;;;;;;8398866;28;19931;-49
2021/09/27 02:55:34;;;;;;;;;;;21.10;49.70;;;;;;8397912;28;19916;-49
2021/09/27 02:59:39;;;;;;;;;;;21.10;49.70;;;;;;8398062;28;19948;-49
2021/09/27 03:03:46;;;;;;;;;;;21.10;49.70;;;;;;8398123;28;19919;-50
2021/09/27 03:07:55;;;;;;;;;;;21.10;49.70;;;;;;8397253;28;19922;-49
2021/09/27 03:12:07;;;;;;;;;;;21.10;49.70;;;;;;8398820;28;19936;-49
2021/09/27 03:16:16;;;;;;;;;;;21.10;49.70;;;;;;8397136;28;20024;-50
2021/09/27 03:20:22;;;;;;;;;;;21.10;49.80;;;;;;8397678;28;19923;-49
2021/09/27 03:24:25;;;;;;;;;;;21.10;49.70;;;;;;8397253;28;19948;-50
2021/09/27 03:28:31;;;;;;;;;;;21.10;49.70;;;;;;8396846;28;19928;-50
2021/09/27 03:32:42;;;;;;;;;;;21.10;49.70;;;;;;8397820;28;20397;-50
2021/09/27 03:36:55;;;;;;;;;;;21.10;49.70;;;;;;8396939;28;19923;-49
2021/09/27 03:41:04;;;;;;;;;;;21.10;49.70;;;;;;8396351;28;20370;-53
2021/09/27 03:45:11;;;;;;;;;;;21.10;49.70;;;;;;8396737;28;19952;-49
2021/09/27 03:49:14;;;;;;;;;;;21.10;49.70;;;;;;8396056;28;19928;-50
2021/09/27 03:53:41;;;;;;;;;;;21.10;49.70;;;;;;8397445;28;19912;-52
2021/09/27 03:57:48;;;;;;;;;;;21.10;49.70;;;;;;8392455;28;19967;-52
2021/09/27 04:02:11;;;;;;;;;;;21.10;49.80;;;;;;8396117;28;19916;-49
2021/09/27 04:06:29;;;;;;;;;;;21.10;49.80;;;;;;8396487;28;19912;-50
2021/09/27 04:10:48;;;;;;;;;;;21.10;49.70;;;;;;8375360;28;19925;-50
2021/09/27 04:15:08;;;;;;;;;;;21.10;49.70;;;;;;8363310;28;21361;-52
2021/09/27 04:19:27;;;;;;;;;;;21.10;49.70;;;;;;8363344;28;19979;-51
2021/09/27 04:24:03;;;;;;;;;;;21.10;49.70;;;;;;8391500;28;20284;-51
2021/09/27 04:28:06;;;;;;;;;;;21.00;49.60;;;;;;8297391;28;19923;-50
2021/09/27 04:32:07;;;;;;;;;;;21.10;49.60;;;;;;8395713;28;19924;-53
2021/09/27 04:36:18;;;;;;;;;;;21.10;49.60;;;;;;8395765;28;20346;-50
2021/09/27 04:40:24;;;;;;;;;;;21.00;49.60;;;;;;8396212;28;19970;-51
2021/09/27 04:44:43;;;;;;;;;;;21.00;49.60;;;;;;8396058;28;20434;-49
2021/09/27 04:48:58;;;;;;;;;;;21.10;49.60;;;;;;8395547;28;19923;-51
2021/09/27 04:53:06;;;;;;;;;;;21.10;49.60;;;;;;8395156;28;19932;-51
2021/09/27 04:57:19;;;;;;;;;;;21.00;49.60;;;;;;8395774;28;19979;-51
2021/09/27 05:01:28;;;;;;;;;;;21.00;49.60;;;;;;8395873;28;19923;-51
2021/09/27 05:05:39;;;;;;;;;;;21.00;49.60;;;;;;8401540;28;19923;-52
2021/09/27 05:09:42;;;;;;;;;;;21.00;49.60;;;;;;8401344;28;20438;-50
2021/09/27 05:13:50;;;;;;;;;;;21.00;49.60;;;;;;8400965;28;20397;-49
2021/09/27 05:18:09;;;;;;;;;;;21.00;49.70;;;;;;8401502;28;19916;-49
2021/09/27 05:22:10;;;;;;;;;;;21.00;49.60;;;;;;8401328;28;20319;-49
2021/09/27 05:26:25;;;;;;;;;;;21.00;49.70;;;;;;8400863;28;19947;-50
2021/09/27 05:30:44;;;;;;;;;;;21.00;49.70;;;;;;8400567;28;20030;-51
2021/09/27 05:35:03;;;;;;;;;;;21.00;49.70;;;;;;8400716;28;20365;-49
2021/09/27 05:39:08;;;;;;;;;;;21.00;49.70;;;;;;8400544;28;19916;-50
2021/09/27 05:43:32;;;;;;;;;;;21.00;49.70;;;;;;8400883;28;19912;-50
2021/09/27 05:47:42;;;;;;;;;;;21.00;49.70;;;;;;8401094;28;19924;-49
2021/09/27 05:52:01;;;;;;;;;;;21.00;49.70;;;;;;8400361;28;19928;-50
2021/09/27 05:56:08;;;;;;;;;;;21.00;49.70;;;;;;8399687;28;19939;-49
2021/09/27 06:00:11;;;;;;;;;;;21.00;49.70;;;;;;8401918;28;19923;-50
2021/09/27 06:04:25;;;;;;;;;;;21.00;49.70;;;;;;8399299;28;19913;-52
2021/09/27 06:08:45;;;;;;;;;;;21.00;49.70;;;;;;8399945;28;19917;-50
2021/09/27 06:13:21;;;;;;;;;;;21.00;49.70;;;;;;8399244;28;19954;-48
2021/09/27 06:17:21;;;;;;;;;;;21.00;49.60;;;;;;8300386;28;19963;-49
2021/09/27 06:21:47;;;;;;;;;;;21.00;49.60;;;;;;8399297;28;19916;-51
2021/09/27 06:25:56;;;;;;;;;;;21.00;49.60;;;;;;8398864;28;19917;-52
2021/09/27 06:30:00;;;;;;;;;;;21.00;49.60;;;;;;8400085;28;20288;-48
2021/09/27 06:34:18;;;;;;;;;;;21.00;49.60;;;;;;8399203;28;19986;-49
2021/09/27 06:38:26;;;;;;;;;;;21.00;49.60;;;;;;8398770;28;19916;-50
2021/09/27 06:42:27;;;;;;;;;;;21.00;49.60;;;;;;8398784;28;19969;-52
2021/09/27 06:46:27;;;;;;;;;;;20.90;49.60;;;;;;8398142;28;19974;-52
2021/09/27 06:50:29;;;;;;;;;;;20.90;49.60;;;;;;8399332;28;19952;-50
2021/09/27 06:54:29;;;;;;;;;;;21.00;49.70;;;;;;8398428;28;19917;-49
2021/09/27 06:58:30;;;;;;;;;;;21.00;49.70;;;;;;8397842;28;20277;-48
2021/09/27 07:02:30;;;;;;;;;;;20.90;49.60;;;;;;8397458;28;19962;-49
2021/09/27 07:06:31;;;;;;;;;;;20.90;49.60;;;;;;8397624;28;19912;-49
2021/09/27 07:10:32;;;;;;;;;;;20.90;49.60;;;;;;8364710;28;19932;-48
2021/09/27 07:14:32;;;;;;;;;;;20.90;49.60;;;;;;8364439;28;19946;-50
2021/09/27 07:18:33;;;;;;;;;;;20.90;49.60;;;;;;8364530;28;19959;-49
2021/09/27 07:22:33;;;;;;;;;;;21.00;49.70;;;;;;8363906;28;20007;-50
2021/09/27 07:26:34;;;;;;;;;;;20.90;49.60;;;;;;8364306;28;20362;-53
2021/09/27 07:30:35;;;;;;;;;;;20.90;49.60;;;;;;8364182;28;19925;-52
2021/09/27 07:34:36;;;;;;;;;;;21.00;49.70;;;;;;8364956;28;20366;-48
2021/09/27 07:38:36;;;;;;;;;;;20.90;49.60;;;;;;8389543;28;19924;-49
2021/09/27 07:42:37;;;;;;;;;;;20.90;49.60;;;;;;8364400;28;19967;-49
2021/09/27 07:46:37;;;;;;;;;;;20.90;49.60;;;;;;8363377;28;19962;-49
2021/09/27 07:50:38;;;;;;;;;;;21.00;49.70;;;;;;8363454;28;19925;-49
2021/09/27 07:54:39;;;;;;;;;;;21.00;49.70;;;;;;8375068;28;19921;-52
2021/09/27 07:58:40;;;;;;;;;;;21.00;49.70;;;;;;8389239;28;19978;-53
2021/09/27 08:02:41;;;;;;;;;;;21.00;49.70;;;;;;8393071;28;19932;-50
2021/09/27 08:06:42;;;;;;;;;;;21.00;49.70;;;;;;8391362;28;19923;-49
2021/09/27 08:10:43;;;;;;;;;;;21.00;49.70;;;;;;8380624;28;20396;-49
2021/09/27 08:14:44;;;;;;;;;;;21.00;49.70;;;;;;8385066;28;19920;-50
2021/09/27 08:18:45;;;;;;;;;;;21.00;49.70;;;;;;8396977;28;19925;-52
2021/09/27 08:22:46;;;;;;;;;;;20.90;49.60;;;;;;8366986;28;19997;-51
2021/09/27 08:26:46;;;;;;;;;;;21.00;49.80;;;;;;8367462;28;19921;-53
2021/09/27 08:30:49;;;;;;;;;;;21.00;49.70;;;;;;8362925;28;19924;-52
2021/09/27 08:34:52;;;;;;;;;;;21.00;49.80;;;;;;8363346;28;19920;-49
2021/09/27 08:38:52;;;;;;;;;;;21.00;49.80;;;;;;8366936;28;20281;-50
2021/09/27 08:42:53;;;;;;;;;;;21.00;49.80;;;;;;8369045;28;19917;-49
2021/09/27 08:46:59;;;;;;;;;;;21.00;49.80;;;;;;8368242;28;19917;-53
2021/09/27 08:51:00;;;;;;;;;;;21.00;49.80;;;;;;8369299;28;19932;-51
2021/09/27 08:55:01;;;;;;;;;;;21.00;49.70;;;;;;8369550;28;19919;-53
2021/09/27 08:59:11;;;;;;;;;;;21.00;49.80;;;;;;8368516;28;20438;-51
2021/09/27 09:03:24;;;;;;;;;;;21.00;49.70;;;;;;8372338;28;19917;-50
2021/09/27 09:07:25;;;;;;;;;;;21.10;49.80;;;;;;8368231;28;20262;-48
2021/09/27 09:11:35;;;;;;;;;;;21.00;49.70;;;;;;8368124;28;19956;-48
2021/09/27 09:15:36;;;;;;;;;;;21.00;49.70;;;;;;8369046;28;19924;-49
2021/09/27 09:19:37;;;;;;;;;;;21.00;49.70;;;;;;8367695;28;19924;-48
2021/09/27 09:23:41;;;;;;;;;;;21.10;49.70;;;;;;8368096;28;19940;-49
2021/09/27 09:27:42;;;;;;;;;;;21.10;49.70;;;;;;8367682;28;19912;-50
2021/09/27 09:31:46;;;;;;;;;;;21.10;49.70;;;;;;8367679;28;19925;-49
2021/09/27 09:35:54;;;;;;;;;;;21.10;49.70;;;;;;8367407;28;19921;-49
2021/09/27 09:39:59;;;;;;;;;;;21.10;49.70;;;;;;8367397;28;19917;-49
2021/09/27 09:44:17;;;;;;;;;;;21.10;49.60;;;;;;8376283;28;19924;-51
2021/09/27 09:48:23;;;;;;;;;;;21.10;49.70;;;;;;8366591;28;19917;-48
2021/09/27 09:52:33;;;;;;;;;;;21.10;49.70;;;;;;8367222;28;20027;-49
2021/09/27 09:56:34;;;;;;;;;;;21.20;49.70;;;;;;8366857;28;20293;-50
2021/09/27 10:00:47;;;;;;;;;;;21.20;49.70;;;;;;8371248;28;19920;-46
2021/09/27 10:04:56;;;;;;;;;;;21.10;49.70;;;;;;8396348;28;19916;-51
2021/09/27 10:08:58;;;;;;;;;;;21.20;49.70;;;;;;8392587;28;20366;-49
2021/09/27 10:13:01;;;;;;;;;;;21.20;49.80;;;;;;8396011;28;19924;-49
2021/09/27 10:17:07;;;;;;;;;;;21.20;49.70;;;;;;8392441;28;19920;-49
2021/09/27 10:21:11;;;;;;;;;;;21.20;49.70;;;;;;8391057;28;19948;-49
2021/09/27 10:25:30;;;;;;;;;;;21.20;49.70;;;;;;8382002;28;19917;-47
2021/09/27 10:29:30;;;;;;;;;;;21.20;50.10;;;;;;8366269;28;19982;-49
2021/09/27 10:33:33;;;;;;;;;;;21.30;49.70;;;;;;8387041;28;19917;-49
2021/09/27 10:37:34;;;;;;;;;;;21.30;49.60;;;;;;8392964;28;20003;-50
2021/09/27 10:41:36;;;;;;;;;;;21.30;49.60;;;;;;8393736;28;19962;-49
2021/09/27 10:45:39;;;;;;;;;;;21.30;49.60;;;;;;8391588;28;20384;-48
2021/09/27 10:49:48;;;;;;;;;;;21.30;49.60;;;;;;8395329;28;20343;-49
2021/09/27 10:53:53;;;;;;;;;;;21.30;49.60;;;;;;8367633;28;19962;-49
2021/09/27 10:57:57;;;;;;;;;;;21.40;49.60;;;;;;8364948;28;20281;-49
2021/09/27 11:02:12;;;;;;;;;;;21.40;49.50;;;;;;8363974;28;19917;-49
2021/09/27 11:06:35;;;;;;;;;;;21.40;49.50;;;;;;8364840;28;19923;-50
2021/09/27 11:10:46;;;;;;;;;;;21.40;49.40;;;;;;8364777;28;20396;-49
2021/09/27 11:14:50;;;;;;;;;;;21.40;49.40;;;;;;8364609;28;19921;-49
2021/09/27 11:19:08;;;;;;;;;;;21.40;49.40;;;;;;8364551;28;19912;-48
2021/09/27 11:23:20;;;;;;;;;;;21.40;49.30;;;;;;8363843;28;19970;-49
2021/09/27 11:27:23;;;;;;;;;;;21.50;49.40;;;;;;8364575;28;19919;-49
2021/09/27 11:31:26;;;;;;;;;;;21.50;49.40;;;;;;8364584;28;19931;-49
2021/09/27 11:35:39;;;;;;;;;;;21.50;49.30;;;;;;8364091;28;19961;-47
2021/09/27 11:39:45;;;;;;;;;;;21.50;49.30;;;;;;8363807;28;19920;-49
2021/09/27 11:43:59;;;;;;;;;;;21.50;49.30;;;;;;8363310;28;20071;-49
2021/09/27 11:48:04;;;;;;;;;;;21.50;49.30;;;;;;8363638;28;20295;-49
2021/09/27 11:52:17;;;;;;;;;;;21.50;49.30;;;;;;8366411;28;19932;-48
2021/09/27 11:56:17;;;;;;;;;;;21.50;49.30;;;;;;8363202;28;19917;-49
2021/09/27 12:00:19;;;;;;;;;;;21.60;49.30;;;;;;8363439;28;19924;-50
2021/09/27 12:04:38;;;;;;;;;;;21.60;49.30;;;;;;8362791;28;19920;-49
2021/09/27 12:08:44;;;;;;;;;;;21.60;49.20;;;;;;8362898;28;20014;-49
2021/09/27 12:12:50;;;;;;;;;;;21.60;49.20;;;;;;8363645;28;20328;-50
2021/09/27 12:16:53;;;;;;;;;;;21.60;49.20;;;;;;8362839;28;19963;-50
2021/09/27 12:20:54;;;;;;;;;;;21.60;49.20;;;;;;8363255;28;19917;-49
2021/09/27 12:24:54;;;;;;;;;;;21.60;49.20;;;;;;8362764;28;19917;-48
2021/09/27 12:29:00;;;;;;;;;;;21.60;49.20;;;;;;8363355;28;19913;-49
2021/09/27 12:33:03;;;;;;;;;;;21.70;49.20;;;;;;8396448;28;19925;-49
2021/09/27 12:37:07;;;;;;;;;;;21.70;49.30;;;;;;8395801;28;19935;-48
2021/09/27 12:41:08;;;;;;;;;;;21.70;49.20;;;;;;8395983;28;19920;-51
2021/09/27 12:45:17;;;;;;;;;;;21.70;49.20;;;;;;8395858;28;19923;-48
2021/09/27 12:49:21;;;;;;;;;;;21.60;49.20;;;;;;8396137;28;20320;-51
2021/09/27 12:53:29;;;;;;;;;;;21.70;49.20;;;;;;8395676;28;19924;-49
2021/09/27 12:57:35;;;;;;;;;;;21.70;49.10;;;;;;8396025;28;19944;-52
2021/09/27 13:01:43;;;;;;;;;;;21.70;49.10;;;;;;8395948;28;19920;-49
2021/09/27 13:05:48;;;;;;;;;;;21.70;49.10;;;;;;8364939;28;19913;-49
2021/09/27 13:10:09;;;;;;;;;;;21.70;49.20;;;;;;8363198;28;19924;-52
2021/09/27 13:14:17;;;;;;;;;;;21.70;49.10;;;;;;8362619;28;19924;-52
2021/09/27 13:18:32;;;;;;;;;;;21.70;49.10;;;;;;8362585;28;20255;-51
2021/09/27 13:22:38;;;;;;;;;;;21.70;49.10;;;;;;8362670;28;19946;-49
2021/09/27 13:26:44;;;;;;;;;;;21.70;49.10;;;;;;8368252;28;19925;-50
2021/09/27 13:30:54;;;;;;;;;;;21.70;49.10;;;;;;8368627;28;19928;-52
2021/09/27 13:34:54;;;;;;;;;;;21.70;49.10;;;;;;8367494;28;19916;-49
2021/09/27 13:38:56;;;;;;;;;;;21.80;49.20;;;;;;8367572;28;20343;-49
2021/09/27 13:43:23;;;;;;;;;;;21.80;49.10;;;;;;8367552;28;19925;-51
2021/09/27 13:47:24;;;;;;;;;;;21.80;49.10;;;;;;8344055;28;20332;-49
2021/09/27 13:51:28;;;;;;;;;;;21.70;49.10;;;;;;8368057;28;19921;-49
2021/09/27 13:55:29;;;;;;;;;;;21.80;49.10;;;;;;8366642;28;19916;-51
2021/09/27 13:59:30;;;;;;;;;;;21.80;49.10;;;;;;8366889;28;19917;-52
2021/09/27 14:03:30;;;;;;;;;;;21.80;49.10;;;;;;8367109;28;20411;-49
2021/09/27 14:07:31;;;;;;;;;;;21.80;49.10;;;;;;8367359;28;20250;-50
2021/09/27 14:11:32;;;;;;;;;;;21.70;49.10;;;;;;8366994;28;19925;-52
2021/09/27 14:15:33;;;;;;;;;;;21.70;49.10;;;;;;8366611;28;19920;-49
2021/09/27 14:19:33;;;;;;;;;;;21.70;49.10;;;;;;8366409;28;20372;-49
2021/09/27 14:23:34;;;;;;;;;;;21.80;49.10;;;;;;8366435;28;20007;-52
2021/09/27 14:27:35;;;;;;;;;;;21.70;49.10;;;;;;8367050;28;19923;-49
2021/09/27 14:31:36;;;;;;;;;;;21.80;49.20;;;;;;8365782;28;19929;-50
2021/09/27 14:35:36;;;;;;;;;;;21.80;49.10;;;;;;8365871;28;20382;-50
2021/09/27 14:39:37;;;;;;;;;;;21.70;49.10;;;;;;8366232;28;19982;-53
2021/09/27 14:43:37;;;;;;;;;;;21.80;49.20;;;;;;8366087;28;20358;-52
2021/09/27 14:47:38;;;;;;;;;;;21.80;49.20;;;;;;8365957;28;19916;-50
2021/09/27 14:51:39;;;;;;;;;;;21.80;49.20;;;;;;8365577;28;20370;-49
2021/09/27 14:55:39;;;;;;;;;;;21.80;49.10;;;;;;8364873;28;19999;-51
2021/09/27 14:59:40;;;;;;;;;;;21.80;49.20;;;;;;8366248;28;19924;-50
2021/09/27 15:03:41;;;;;;;;;;;21.80;49.10;;;;;;8365259;28;19920;-52
2021/09/27 15:07:42;;;;;;;;;;;21.80;49.10;;;;;;8364445;28;19992;-51
2021/09/27 15:11:42;;;;;;;;;;;21.80;49.10;;;;;;8365037;28;19932;-49
2021/09/27 15:15:44;;;;;;;;;;;21.80;49.10;;;;;;8364716;28;19928;-49
2021/09/27 15:19:45;;;;;;;;;;;21.80;49.10;;;;;;8364966;28;19913;-52
2021/09/27 15:23:45;;;;;;;;;;;21.80;49.10;;;;;;8364435;28;20008;-49
2021/09/27 15:27:46;;;;;;;;;;;21.80;49.10;;;;;;8364231;28;20516;-49
2021/09/27 15:31:49;;;;;;;;;;;21.80;49.10;;;;;;8363574;28;19952;-53
2021/09/27 15:35:50;;;;;;;;;;;21.80;49.00;;;;;;8365104;28;19935;-50
2021/09/27 15:39:51;;;;;;;;;;;21.80;49.00;;;;;;8364221;28;20006;-52
2021/09/27 15:43:51;;;;;;;;;;;21.80;49.00;;;;;;8363231;28;20003;-53
2021/09/27 15:47:52;;;;;;;;;;;21.80;49.00;;;;;;8363358;28;20282;-50
2021/09/27 15:51:53;;;;;;;;;;;21.80;49.00;;;;;;8363477;28;20381;-51
2021/09/27 15:55:54;;;;;;;;;;;21.80;49.00;;;;;;8363947;28;19916;-49
2021/09/27 15:59:55;;;;;;;;;;;21.80;49.00;;;;;;8363679;28;19963;-50
2021/09/27 16:03:55;;;;;;;;;;;21.80;49.00;;;;;;8362843;28;19920;-50
2021/09/27 16:07:55;;;;;;;;;;;21.80;49.00;;;;;;8362812;28;19946;-52
2021/09/27 16:11:56;;;;;;;;;;;21.80;49.50;;;;;;8363847;28;19933;-50
2021/09/27 16:15:59;;;;;;;;;;;21.80;49.00;;;;;;8363071;28;19921;-52
2021/09/27 16:19:59;;;;;;;;;;;21.80;49.00;;;;;;8362537;28;20358;-50
2021/09/27 16:24:00;;;;;;;;;;;21.80;49.00;;;;;;8363332;28;19965;-52
2021/09/27 16:28:02;;;;;;;;;;;21.80;49.00;;;;;;8363835;28;19920;-52
2021/09/27 16:32:04;;;;;;;;;;;21.80;49.00;;;;;;8362315;28;19974;-53
2021/09/27 16:36:05;;;;;;;;;;;21.80;49.10;;;;;;8362322;28;20432;-52
2021/09/27 16:40:06;;;;;;;;;;;21.80;49.10;;;;;;8362303;28;19913;-47
2021/09/27 16:44:08;;;;;;;;;;;21.80;49.10;;;;;;8362956;28;20327;-50
2021/09/27 16:48:09;;;;;;;;;;;21.80;49.10;;;;;;8363483;28;19995;-51
2021/09/27 16:52:10;;;;;;;;;;;21.80;49.30;;;;;;8362084;28;20007;-50
2021/09/27 16:56:10;;;;;;;;;;;21.80;49.10;;;;;;8362457;28;20255;-52
2021/09/27 17:00:11;;;;;;;;;;;21.80;49.20;;;;;;8367042;28;19913;-52
2021/09/27 17:04:13;;;;;;;;;;;21.80;49.20;;;;;;8367637;28;19920;-51
2021/09/27 17:08:13;;;;;;;;;;;21.80;49.20;;;;;;8368812;28;20332;-48
2021/09/27 17:12:15;;;;;;;;;;;21.80;49.20;;;;;;8368483;28;19929;-50
2021/09/27 17:20:35;;;;;;;;;;;21.80;49.20;;;;;;8374718;28;20011;-48
2021/09/27 17:24:35;;;;;;;;;;;21.80;49.30;;;;;;8368771;28;19917;-51
2021/09/27 17:28:38;;;;;;;;;;;21.80;49.30;;;;;;8367653;28;20484;-50
2021/09/27 17:32:38;;;;;;;;;;;21.80;49.30;;;;;;8367799;28;19924;-49
2021/09/27 17:36:39;;;;;;;;;;;21.80;49.30;;;;;;8367743;28;19917;-49
2021/09/27 17:40:40;;;;;;;;;;;21.80;49.30;;;;;;8367957;28;19925;-48
2021/09/27 17:44:40;;;;;;;;;;;21.80;49.30;;;;;;8367298;28;19984;-49
2021/09/27 17:48:41;;;;;;;;;;;21.80;49.30;;;;;;8367234;28;20353;-52
2021/09/27 17:52:42;;;;;;;;;;;21.80;49.30;;;;;;8366563;28;19925;-53
2021/09/27 17:56:43;;;;;;;;;;;21.80;49.30;;;;;;8366794;28;19920;-51
2021/09/27 18:00:44;;;;;;;;;;;21.80;49.30;;;;;;8367645;28;19916;-50
2021/09/27 18:04:45;;;;;;;;;;;21.80;49.40;;;;;;8366365;28;19921;-52
2021/09/27 18:08:46;;;;;;;;;;;21.80;49.40;;;;;;8365886;28;19916;-50
2021/09/27 18:12:47;;;;;;;;;;;21.80;49.40;;;;;;8370178;28;19947;-49
2021/09/27 18:16:47;;;;;;;;;;;21.80;49.40;;;;;;8366825;28;20356;-49
2021/09/27 18:20:48;;;;;;;;;;;21.80;49.40;;;;;;8366331;28;19959;-52
2021/09/27 18:24:49;;;;;;;;;;;21.80;49.40;;;;;;8366163;28;19962;-50
2021/09/27 18:28:49;;;;;;;;;;;21.80;49.40;;;;;;8365403;28;19916;-50
2021/09/27 18:32:50;;;;;;;;;;;21.80;49.40;;;;;;8365263;28;19928;-52
2021/09/27 18:36:51;;;;;;;;;;;21.80;49.50;;;;;;8365756;28;20358;-52
2021/09/27 18:40:56;;;;;;;;;;;21.80;49.50;;;;;;8365195;28;19917;-50
2021/09/27 18:44:56;;;;;;;;;;;21.80;49.40;;;;;;8365777;28;20145;-49
2021/09/27 18:48:57;;;;;;;;;;;21.80;49.40;;;;;;8365433;28;20374;-49
2021/09/27 18:52:58;;;;;;;;;;;21.80;49.40;;;;;;8365648;28;20004;-49
2021/09/27 18:56:58;;;;;;;;;;;21.80;49.50;;;;;;8365455;28;20444;-49
2021/09/27 19:00:59;;;;;;;;;;;21.80;49.40;;;;;;8365310;28;19918;-49
2021/09/27 19:04:59;;;;;;;;;;;21.80;49.40;;;;;;8364547;28;19916;-53
2021/09/27 19:09:00;;;;;;;;;;;21.80;49.50;;;;;;8364893;28;19920;-49
2021/09/27 19:13:11;;;;;;;;;;;21.80;49.40;;;;;;8364636;28;19980;-49
2021/09/27 19:17:12;;;;;;;;;;;21.80;49.40;;;;;;8364192;28;19917;-49
2021/09/27 19:21:15;;;;;;;;;;;21.80;49.40;;;;;;8363626;28;19943;-52
2021/09/27 19:25:16;;;;;;;;;;;21.80;49.40;;;;;;8363901;28;20007;-50
2021/09/27 19:29:16;;;;;;;;;;;21.80;49.50;;;;;;8365369;28;19986;-51
2021/09/27 19:33:17;;;;;;;;;;;21.80;49.50;;;;;;8364078;28;19929;-52
2021/09/27 19:37:19;;;;;;;;;;;21.80;49.50;;;;;;8363534;28;19932;-53
2021/09/27 19:41:20;;;;;;;;;;;21.80;49.50;;;;;;8364142;28;19917;-49
2021/09/27 19:45:21;;;;;;;;;;;21.80;49.50;;;;;;8364829;28;19924;-49
2021/09/27 19:49:22;;;;;;;;;;;21.80;49.50;;;;;;8363277;28;20003;-49
2021/09/27 19:53:22;;;;;;;;;;;21.80;49.50;;;;;;8363934;28;20317;-50
2021/09/27 19:57:23;;;;;;;;;;;21.70;49.40;;;;;;8363420;28;20447;-49
2021/09/27 20:01:23;;;;;;;;;;;21.80;49.50;;;;;;8363900;28;20388;-50
2021/09/27 20:05:25;;;;;;;;;;;21.80;49.50;;;;;;8363582;28;19917;-50
2021/09/27 20:09:25;;;;;;;;;;;21.80;49.50;;;;;;8363178;28;19927;-47
2021/09/27 20:13:25;;;;;;;;;;;21.70;49.50;;;;;;8362592;28;19929;-49
2021/09/27 20:17:26;;;;;;;;;;;21.70;49.50;;;;;;8363351;28;19999;-49
2021/09/27 20:21:27;;;;;;;;;;;21.70;49.50;;;;;;8363669;28;19921;-50
2021/09/27 20:25:27;;;;;;;;;;;21.80;49.50;;;;;;8362479;28;19971;-49
2021/09/27 20:29:28;;;;;;;;;;;21.70;49.50;;;;;;8363375;28;19917;-50
2021/09/27 20:33:29;;;;;;;;;;;21.70;49.50;;;;;;8366648;28;19924;-50
2021/09/27 20:37:29;;;;;;;;;;;21.70;49.50;;;;;;8369884;28;19924;-51
2021/09/27 20:41:30;;;;;;;;;;;21.70;49.50;;;;;;8369681;28;20396;-49
2021/09/27 20:45:31;;;;;;;;;;;21.70;49.50;;;;;;8369254;28;19969;-50
2021/09/27 20:49:31;;;;;;;;;;;21.70;49.50;;;;;;8368944;28;19924;-53
2021/09/27 20:53:35;;;;;;;;;;;21.70;50.00;;;;;;8368995;28;19928;-49
2021/09/27 20:57:36;;;;;;;;;;;21.70;49.50;;;;;;8369649;28;19916;-50
2021/09/27 21:01:36;;;;;;;;;;;21.70;50.10;;;;;;8368584;28;19916;-49
2021/09/27 21:05:37;;;;;;;;;;;21.70;49.50;;;;;;8368779;28;19921;-49
2021/09/27 21:09:38;;;;;;;;;;;21.70;49.50;;;;;;8369029;28;19928;-50
2021/09/27 21:13:38;;;;;;;;;;;21.70;49.50;;;;;;8368778;28;19929;-50
2021/09/27 21:17:39;;;;;;;;;;;21.70;49.50;;;;;;8368510;28;19917;-49
2021/09/27 21:21:39;;;;;;;;;;;21.70;49.50;;;;;;8368565;28;19921;-49
2021/09/27 21:25:39;;;;;;;;;;;21.70;49.50;;;;;;8367921;28;20004;-50
2021/09/27 21:29:40;;;;;;;;;;;21.70;49.60;;;;;;8368701;28;19928;-49
2021/09/27 21:33:41;;;;;;;;;;;21.60;49.50;;;;;;8367846;28;19929;-49
2021/09/27 21:37:41;;;;;;;;;;;21.60;49.50;;;;;;8367481;28;20004;-49
2021/09/27 21:41:43;;;;;;;;;;;21.70;49.50;;;;;;8367979;28;19975;-49
2021/09/27 21:45:43;;;;;;;;;;;21.60;49.50;;;;;;8366805;28;19939;-49
2021/09/27 21:49:44;;;;;;;;;;;21.70;49.60;;;;;;8367752;28;19956;-50
2021/09/27 21:53:44;;;;;;;;;;;21.60;49.50;;;;;;8367088;28;20340;-49
2021/09/27 21:57:45;;;;;;;;;;;21.60;49.50;;;;;;8367090;28;19939;-50
2021/09/27 22:02:06;;;;;;;;;;;21.60;49.50;;;;;;8372419;28;20285;-49
2021/09/27 22:06:07;;;;;;;;;;;21.60;49.50;;;;;;8336553;28;19921;-49
2021/09/27 22:10:08;;;;;;;;;;;21.60;49.50;;;;;;8366371;28;20389;-49
2021/09/27 22:14:09;;;;;;;;;;;21.60;49.50;;;;;;8366779;28;19917;-49
2021/09/27 22:18:09;;;;;;;;;;;21.60;49.50;;;;;;8366592;28;20371;-49
2021/09/27 22:22:10;;;;;;;;;;;21.60;49.60;;;;;;8366202;28;19925;-49
2021/09/27 22:26:10;;;;;;;;;;;21.60;49.50;;;;;;8367291;28;19917;-49
2021/09/27 22:30:12;;;;;;;;;;;21.60;49.60;;;;;;8366293;28;19925;-51
2021/09/27 22:34:12;;;;;;;;;;;21.60;49.60;;;;;;8365741;28;19921;-48
2021/09/27 22:38:13;;;;;;;;;;;21.60;49.60;;;;;;8365803;28;20427;-51
2021/09/27 22:42:13;;;;;;;;;;;21.60;49.60;;;;;;8366485;28;19923;-48
2021/09/27 22:46:14;;;;;;;;;;;21.60;49.60;;;;;;8365397;28;20393;-49
2021/09/27 22:50:16;;;;;;;;;;;21.60;49.60;;;;;;8365669;28;19920;-53
2021/09/27 22:54:16;;;;;;;;;;;21.60;49.60;;;;;;8365459;28;20369;-48
2021/09/27 22:58:17;;;;;;;;;;;21.60;49.60;;;;;;8365323;28;19921;-49
2021/09/27 23:02:17;;;;;;;;;;;21.60;49.70;;;;;;8365668;28;19921;-50
2021/09/27 23:06:18;;;;;;;;;;;21.60;49.70;;;;;;8365185;28;19967;-52
2021/09/27 23:10:18;;;;;;;;;;;21.50;49.70;;;;;;8364237;28;19957;-50
2021/09/27 23:14:19;;;;;;;;;;;21.60;49.70;;;;;;8365124;28;19921;-50
2021/09/27 23:18:19;;;;;;;;;;;21.60;49.70;;;;;;8365552;28;19924;-50
2021/09/27 23:22:20;;;;;;;;;;;21.50;49.70;;;;;;8364188;28;19963;-50
2021/09/27 23:26:20;;;;;;;;;;;21.50;49.70;;;;;;8364724;28;19962;-50
2021/09/27 23:30:21;;;;;;;;;;;21.50;49.80;;;;;;8364247;28;19921;-52
2021/09/27 23:34:22;;;;;;;;;;;21.50;49.70;;;;;;8364577;28;20362;-50
2021/09/27 23:38:22;;;;;;;;;;;21.50;49.80;;;;;;8364416;28;19917;-49
2021/09/27 23:42:23;;;;;;;;;;;21.50;49.80;;;;;;8363882;28;19924;-49
2021/09/27 23:46:23;;;;;;;;;;;21.50;49.70;;;;;;8363612;28;20401;-51